Terminal Aerodrome Forecast
Issued by NWS Tampa Bay Area, FL

Home | Current Version | Previous Version | Text Only | Print | Product List | Glossary On
Versions: 1 2 3 4 5 6 7 8 9 10 11 12 13 14 15
000
FTUS42 KTBW 161100
TAFFMY
TAF
KFMY 161123Z 1612/1712 33004KT P6SM BKN120 BKN250
     FM161800 30005KT P6SM VCTS BKN050CB
     FM170200 VRB02KT P6SM SCT050 BKN250=

USA.gov is the U.S. government's official web portal to all federal, state and local government web resources and services.